sensor_id;sensor_type;location;lat;lon;timestamp;P1;durP1;ratioP1;P2;durP2;ratioP2
71759;SDS011;59919;48.112;16.280;2023-01-28T00:02:26;12.27;;;8.20;;
71759;SDS011;59919;48.112;16.280;2023-01-28T00:05:00;12.85;;;8.93;;
71759;SDS011;59919;48.112;16.280;2023-01-28T00:07:35;11.40;;;8.00;;
71759;SDS011;59919;48.112;16.280;2023-01-28T00:10:06;12.82;;;8.60;;
71759;SDS011;59919;48.112;16.280;2023-01-28T00:12:40;10.85;;;8.32;;
71759;SDS011;59919;48.112;16.280;2023-01-28T00:15:17;12.50;;;8.55;;
71759;SDS011;59919;48.112;16.280;2023-01-28T00:17:50;12.73;;;8.27;;
71759;SDS011;59919;48.112;16.280;2023-01-28T00:20:26;12.80;;;8.85;;
71759;SDS011;59919;48.112;16.280;2023-01-28T00:22:57;11.63;;;8.27;;
71759;SDS011;59919;48.112;16.280;2023-01-28T00:25:31;11.57;;;7.70;;
71759;SDS011;59919;48.112;16.280;2023-01-28T00:28:02;12.27;;;8.50;;
71759;SDS011;59919;48.112;16.280;2023-01-28T00:30:33;13.57;;;8.50;;
71759;SDS011;59919;48.112;16.280;2023-01-28T00:33:04;12.85;;;8.27;;
71759;SDS011;59919;48.112;16.280;2023-01-28T00:35:35;12.63;;;8.02;;
71759;SDS011;59919;48.112;16.280;2023-01-28T00:38:06;13.00;;;8.55;;
71759;SDS011;59919;48.112;16.280;2023-01-28T00:40:38;11.48;;;8.00;;
71759;SDS011;59919;48.112;16.280;2023-01-28T00:43:09;11.65;;;8.25;;
71759;SDS011;59919;48.112;16.280;2023-01-28T00:45:40;12.20;;;8.25;;
71759;SDS011;59919;48.112;16.280;2023-01-28T00:48:14;11.40;;;8.13;;
71759;SDS011;59919;48.112;16.280;2023-01-28T00:50:45;13.98;;;9.23;;
71759;SDS011;59919;48.112;16.280;2023-01-28T00:53:18;11.63;;;8.60;;
71759;SDS011;59919;48.112;16.280;2023-01-28T00:55:49;11.90;;;8.68;;
71759;SDS011;59919;48.112;16.280;2023-01-28T00:58:20;12.80;;;8.30;;
71759;SDS011;59919;48.112;16.280;2023-01-28T01:00:53;12.63;;;8.68;;
71759;SDS011;59919;48.112;16.280;2023-01-28T01:03:24;11.50;;;8.00;;
71759;SDS011;59919;48.112;16.280;2023-01-28T01:06:01;12.07;;;8.30;;
71759;SDS011;59919;48.112;16.280;2023-01-28T01:08:32;12.63;;;8.60;;
71759;SDS011;59919;48.112;16.280;2023-01-28T01:13:42;11.27;;;7.75;;
71759;SDS011;59919;48.112;16.280;2023-01-28T01:16:14;12.38;;;8.55;;
71759;SDS011;59919;48.112;16.280;2023-01-28T01:18:49;13.55;;;8.73;;
71759;SDS011;59919;48.112;16.280;2023-01-28T01:21:22;11.75;;;8.05;;
71759;SDS011;59919;48.112;16.280;2023-01-28T01:23:55;13.57;;;8.73;;
71759;SDS011;59919;48.112;16.280;2023-01-28T01:26:31;12.45;;;8.10;;
71759;SDS011;59919;48.112;16.280;2023-01-28T01:29:02;12.68;;;8.68;;
71759;SDS011;59919;48.112;16.280;2023-01-28T01:31:33;12.75;;;8.68;;
71759;SDS011;59919;48.112;16.280;2023-01-28T01:34:04;12.05;;;8.05;;
71759;SDS011;59919;48.112;16.280;2023-01-28T01:36:35;13.77;;;8.70;;
71759;SDS011;59919;48.112;16.280;2023-01-28T01:39:08;12.25;;;8.65;;
71759;SDS011;59919;48.112;16.280;2023-01-28T01:41:42;12.00;;;8.23;;
71759;SDS011;59919;48.112;16.280;2023-01-28T01:47:24;12.65;;;8.07;;
71759;SDS011;59919;48.112;16.280;2023-01-28T01:50:19;12.25;;;8.27;;
71759;SDS011;59919;48.112;16.280;2023-01-28T01:52:59;11.98;;;7.80;;
71759;SDS011;59919;48.112;16.280;2023-01-28T01:55:35;12.80;;;9.07;;
71759;SDS011;59919;48.112;16.280;2023-01-28T01:58:14;13.38;;;8.82;;
71759;SDS011;59919;48.112;16.280;2023-01-28T02:00:49;11.55;;;7.80;;
71759;SDS011;59919;48.112;16.280;2023-01-28T02:03:22;13.40;;;8.63;;
71759;SDS011;59919;48.112;16.280;2023-01-28T02:06:01;13.57;;;9.18;;
71759;SDS011;59919;48.112;16.280;2023-01-28T02:08:33;11.45;;;8.23;;
71759;SDS011;59919;48.112;16.280;2023-01-28T02:11:04;12.23;;;8.48;;
71759;SDS011;59919;48.112;16.280;2023-01-28T02:13:41;12.80;;;9.05;;
71759;SDS011;59919;48.112;16.280;2023-01-28T02:16:16;13.40;;;8.70;;
71759;SDS011;59919;48.112;16.280;2023-01-28T02:18:48;13.45;;;8.90;;
71759;SDS011;59919;48.112;16.280;2023-01-28T02:21:25;12.10;;;8.18;;
71759;SDS011;59919;48.112;16.280;2023-01-28T02:35:14;13.20;;;8.15;;
71759;SDS011;59919;48.112;16.280;2023-01-28T02:38:19;13.18;;;8.38;;
71759;SDS011;59919;48.112;16.280;2023-01-28T02:41:03;13.20;;;8.83;;
71759;SDS011;59919;48.112;16.280;2023-01-28T02:43:40;13.05;;;9.02;;
71759;SDS011;59919;48.112;16.280;2023-01-28T02:49:29;12.20;;;8.05;;
71759;SDS011;59919;48.112;16.280;2023-01-28T02:56:22;11.55;;;8.25;;
71759;SDS011;59919;48.112;16.280;2023-01-28T03:04:27;11.73;;;8.18;;
71759;SDS011;59919;48.112;16.280;2023-01-28T03:07:10;13.13;;;8.75;;
71759;SDS011;59919;48.112;16.280;2023-01-28T03:09:44;12.27;;;8.07;;
71759;SDS011;59919;48.112;16.280;2023-01-28T03:12:22;12.80;;;8.65;;
71759;SDS011;59919;48.112;16.280;2023-01-28T03:15:16;11.73;;;7.65;;
71759;SDS011;59919;48.112;16.280;2023-01-28T03:24:17;11.80;;;8.13;;
71759;SDS011;59919;48.112;16.280;2023-01-28T03:27:19;13.05;;;9.07;;
71759;SDS011;59919;48.112;16.280;2023-01-28T03:30:18;12.75;;;8.07;;
71759;SDS011;59919;48.112;16.280;2023-01-28T03:33:10;12.50;;;8.40;;
71759;SDS011;59919;48.112;16.280;2023-01-28T03:36:02;14.40;;;8.80;;
71759;SDS011;59919;48.112;16.280;2023-01-28T03:38:54;12.57;;;8.70;;
71759;SDS011;59919;48.112;16.280;2023-01-28T03:41:28;10.52;;;7.40;;
71759;SDS011;59919;48.112;16.280;2023-01-28T03:43:59;15.20;;;8.88;;
71759;SDS011;59919;48.112;16.280;2023-01-28T03:46:49;13.35;;;8.75;;
71759;SDS011;59919;48.112;16.280;2023-01-28T03:49:25;13.85;;;9.57;;
71759;SDS011;59919;48.112;16.280;2023-01-28T03:51:56;13.93;;;9.77;;
71759;SDS011;59919;48.112;16.280;2023-01-28T03:54:30;12.23;;;8.45;;
71759;SDS011;59919;48.112;16.280;2023-01-28T03:57:03;12.07;;;9.02;;
71759;SDS011;59919;48.112;16.280;2023-01-28T03:59:35;13.57;;;9.77;;
71759;SDS011;59919;48.112;16.280;2023-01-28T04:02:06;13.98;;;9.23;;
71759;SDS011;59919;48.112;16.280;2023-01-28T04:04:38;13.90;;;8.55;;
71759;SDS011;59919;48.112;16.280;2023-01-28T04:07:10;11.70;;;8.23;;
71759;SDS011;59919;48.112;16.280;2023-01-28T04:09:43;14.00;;;9.00;;
71759;SDS011;59919;48.112;16.280;2023-01-28T04:12:14;13.52;;;8.70;;
71759;SDS011;59919;48.112;16.280;2023-01-28T04:14:45;13.52;;;9.05;;
71759;SDS011;59919;48.112;16.280;2023-01-28T04:17:16;13.35;;;8.57;;
71759;SDS011;59919;48.112;16.280;2023-01-28T04:19:50;12.95;;;8.85;;
71759;SDS011;59919;48.112;16.280;2023-01-28T04:22:24;13.25;;;8.52;;
71759;SDS011;59919;48.112;16.280;2023-01-28T04:24:55;12.50;;;7.93;;
71759;SDS011;59919;48.112;16.280;2023-01-28T04:27:29;13.18;;;8.63;;
71759;SDS011;59919;48.112;16.280;2023-01-28T04:30:00;13.18;;;8.73;;
71759;SDS011;59919;48.112;16.280;2023-01-28T04:32:31;11.95;;;8.35;;
71759;SDS011;59919;48.112;16.280;2023-01-28T04:35:02;13.20;;;8.80;;
71759;SDS011;59919;48.112;16.280;2023-01-28T04:37:36;13.38;;;8.98;;
71759;SDS011;59919;48.112;16.280;2023-01-28T04:40:07;12.02;;;8.50;;
71759;SDS011;59919;48.112;16.280;2023-01-28T04:42:40;14.88;;;9.30;;
71759;SDS011;59919;48.112;16.280;2023-01-28T04:45:13;12.82;;;8.68;;
71759;SDS011;59919;48.112;16.280;2023-01-28T04:47:44;12.35;;;8.95;;
71759;SDS011;59919;48.112;16.280;2023-01-28T04:50:15;13.98;;;8.98;;
71759;SDS011;59919;48.112;16.280;2023-01-28T04:52:46;13.88;;;9.10;;
71759;SDS011;59919;48.112;16.280;2023-01-28T04:55:17;13.88;;;9.18;;
71759;SDS011;59919;48.112;16.280;2023-01-28T04:57:48;12.93;;;9.18;;
71759;SDS011;59919;48.112;16.280;2023-01-28T05:00:19;12.60;;;8.75;;
71759;SDS011;59919;48.112;16.280;2023-01-28T05:02:50;11.93;;;8.40;;
71759;SDS011;59919;48.112;16.280;2023-01-28T05:05:21;13.30;;;8.88;;
71759;SDS011;59919;48.112;16.280;2023-01-28T05:07:55;12.95;;;8.93;;
71759;SDS011;59919;48.112;16.280;2023-01-28T05:10:28;13.18;;;8.90;;
71759;SDS011;59919;48.112;16.280;2023-01-28T05:12:59;13.63;;;8.45;;
71759;SDS011;59919;48.112;16.280;2023-01-28T05:15:33;12.35;;;8.93;;
71759;SDS011;59919;48.112;16.280;2023-01-28T05:18:04;15.85;;;9.10;;
71759;SDS011;59919;48.112;16.280;2023-01-28T05:20:37;14.88;;;9.30;;
71759;SDS011;59919;48.112;16.280;2023-01-28T05:23:08;13.77;;;9.13;;
71759;SDS011;59919;48.112;16.280;2023-01-28T05:25:40;13.77;;;8.80;;
71759;SDS011;59919;48.112;16.280;2023-01-28T05:28:11;13.73;;;8.80;;
71759;SDS011;59919;48.112;16.280;2023-01-28T05:30:45;13.70;;;9.25;;
71759;SDS011;59919;48.112;16.280;2023-01-28T05:33:20;11.18;;;7.95;;
71759;SDS011;59919;48.112;16.280;2023-01-28T05:35:51;13.57;;;8.80;;
71759;SDS011;59919;48.112;16.280;2023-01-28T05:38:22;14.18;;;8.82;;
71759;SDS011;59919;48.112;16.280;2023-01-28T05:40:56;13.10;;;9.10;;
71759;SDS011;59919;48.112;16.280;2023-01-28T05:43:29;13.02;;;8.93;;
71759;SDS011;59919;48.112;16.280;2023-01-28T05:46:00;13.55;;;8.80;;
71759;SDS011;59919;48.112;16.280;2023-01-28T05:48:32;12.07;;;8.55;;
71759;SDS011;59919;48.112;16.280;2023-01-28T05:51:03;14.77;;;9.02;;
71759;SDS011;59919;48.112;16.280;2023-01-28T05:53:37;13.57;;;8.93;;
71759;SDS011;59919;48.112;16.280;2023-01-28T05:56:08;12.60;;;8.65;;
71759;SDS011;59919;48.112;16.280;2023-01-28T05:58:39;13.52;;;9.13;;
71759;SDS011;59919;48.112;16.280;2023-01-28T06:01:13;13.57;;;9.25;;
71759;SDS011;59919;48.112;16.280;2023-01-28T06:03:46;13.40;;;8.65;;
71759;SDS011;59919;48.112;16.280;2023-01-28T06:06:20;11.70;;;8.13;;
71759;SDS011;59919;48.112;16.280;2023-01-28T06:08:54;13.02;;;8.65;;
71759;SDS011;59919;48.112;16.280;2023-01-28T06:11:28;12.13;;;7.75;;
71759;SDS011;59919;48.112;16.280;2023-01-28T06:13:59;13.55;;;9.30;;
71759;SDS011;59919;48.112;16.280;2023-01-28T06:16:32;13.38;;;8.45;;
71759;SDS011;59919;48.112;16.280;2023-01-28T06:19:04;12.35;;;8.82;;
71759;SDS011;59919;48.112;16.280;2023-01-28T06:21:35;13.77;;;8.75;;
71759;SDS011;59919;48.112;16.280;2023-01-28T06:24:06;13.02;;;9.00;;
71759;SDS011;59919;48.112;16.280;2023-01-28T06:26:41;13.23;;;8.18;;
71759;SDS011;59919;48.112;16.280;2023-01-28T06:29:12;12.60;;;8.85;;
71759;SDS011;59919;48.112;16.280;2023-01-28T06:31:43;11.50;;;7.93;;
71759;SDS011;59919;48.112;16.280;2023-01-28T06:34:17;12.82;;;8.27;;
71759;SDS011;59919;48.112;16.280;2023-01-28T06:36:48;12.02;;;8.13;;
71759;SDS011;59919;48.112;16.280;2023-01-28T06:39:20;12.27;;;8.93;;
71759;SDS011;59919;48.112;16.280;2023-01-28T06:41:51;12.90;;;8.60;;
71759;SDS011;59919;48.112;16.280;2023-01-28T06:44:23;12.10;;;7.97;;
71759;SDS011;59919;48.112;16.280;2023-01-28T06:46:54;13.57;;;8.55;;
71759;SDS011;59919;48.112;16.280;2023-01-28T06:49:25;12.38;;;8.52;;
71759;SDS011;59919;48.112;16.280;2023-01-28T06:51:56;13.10;;;8.85;;
71759;SDS011;59919;48.112;16.280;2023-01-28T06:54:27;11.93;;;7.85;;
71759;SDS011;59919;48.112;16.280;2023-01-28T06:56:58;15.07;;;9.38;;
71759;SDS011;59919;48.112;16.280;2023-01-28T06:59:29;12.10;;;8.60;;
71759;SDS011;59919;48.112;16.280;2023-01-28T07:02:01;11.07;;;7.70;;
71759;SDS011;59919;48.112;16.280;2023-01-28T07:04:31;12.93;;;8.27;;
71759;SDS011;59919;48.112;16.280;2023-01-28T07:07:02;13.90;;;8.82;;
71759;SDS011;59919;48.112;16.280;2023-01-28T07:09:33;14.82;;;9.25;;
71759;SDS011;59919;48.112;16.280;2023-01-28T07:12:07;12.85;;;8.88;;
71759;SDS011;59919;48.112;16.280;2023-01-28T07:14:38;12.30;;;8.32;;
71759;SDS011;59919;48.112;16.280;2023-01-28T07:17:10;12.48;;;8.65;;
71759;SDS011;59919;48.112;16.280;2023-01-28T07:19:40;13.25;;;8.45;;
71759;SDS011;59919;48.112;16.280;2023-01-28T07:22:11;12.52;;;7.95;;
71759;SDS011;59919;48.112;16.280;2023-01-28T07:24:48;12.27;;;8.15;;
71759;SDS011;59919;48.112;16.280;2023-01-28T07:27:20;12.63;;;8.23;;
71759;SDS011;59919;48.112;16.280;2023-01-28T07:29:51;12.32;;;8.43;;
71759;SDS011;59919;48.112;16.280;2023-01-28T07:32:24;13.43;;;8.70;;
71759;SDS011;59919;48.112;16.280;2023-01-28T07:34:57;11.50;;;8.10;;
71759;SDS011;59919;48.112;16.280;2023-01-28T07:37:28;12.45;;;8.45;;
71759;SDS011;59919;48.112;16.280;2023-01-28T07:40:03;12.57;;;8.82;;
71759;SDS011;59919;48.112;16.280;2023-01-28T07:42:35;13.55;;;9.18;;
71759;SDS011;59919;48.112;16.280;2023-01-28T07:45:09;11.88;;;8.23;;
71759;SDS011;59919;48.112;16.280;2023-01-28T07:47:43;12.40;;;8.27;;
71759;SDS011;59919;48.112;16.280;2023-01-28T07:50:27;14.37;;;8.77;;
71759;SDS011;59919;48.112;16.280;2023-01-28T07:53:04;13.57;;;7.90;;
71759;SDS011;59919;48.112;16.280;2023-01-28T07:55:37;12.85;;;8.32;;
71759;SDS011;59919;48.112;16.280;2023-01-28T07:58:11;12.82;;;8.40;;
71759;SDS011;59919;48.112;16.280;2023-01-28T08:00:42;12.95;;;9.32;;
71759;SDS011;59919;48.112;16.280;2023-01-28T08:03:13;12.45;;;8.48;;
71759;SDS011;59919;48.112;16.280;2023-01-28T08:05:48;12.25;;;8.15;;
71759;SDS011;59919;48.112;16.280;2023-01-28T08:08:21;13.10;;;8.80;;
71759;SDS011;59919;48.112;16.280;2023-01-28T08:10:53;13.40;;;9.02;;
71759;SDS011;59919;48.112;16.280;2023-01-28T08:13:26;13.10;;;7.88;;
71759;SDS011;59919;48.112;16.280;2023-01-28T08:15:58;12.52;;;8.07;;
71759;SDS011;59919;48.112;16.280;2023-01-28T08:18:29;12.82;;;8.43;;
71759;SDS011;59919;48.112;16.280;2023-01-28T08:21:03;13.13;;;8.65;;
71759;SDS011;59919;48.112;16.280;2023-01-28T08:23:36;15.52;;;8.90;;
71759;SDS011;59919;48.112;16.280;2023-01-28T08:26:10;11.80;;;8.35;;
71759;SDS011;59919;48.112;16.280;2023-01-28T08:28:41;11.98;;;7.22;;
71759;SDS011;59919;48.112;16.280;2023-01-28T08:31:13;13.43;;;9.05;;
71759;SDS011;59919;48.112;16.280;2023-01-28T08:33:44;10.43;;;7.63;;
71759;SDS011;59919;48.112;16.280;2023-01-28T08:36:15;11.30;;;7.28;;
71759;SDS011;59919;48.112;16.280;2023-01-28T08:38:50;12.02;;;8.02;;
71759;SDS011;59919;48.112;16.280;2023-01-28T08:41:23;12.95;;;8.75;;
71759;SDS011;59919;48.112;16.280;2023-01-28T08:43:54;13.25;;;8.23;;
71759;SDS011;59919;48.112;16.280;2023-01-28T08:46:26;11.85;;;7.78;;
71759;SDS011;59919;48.112;16.280;2023-01-28T08:48:57;11.73;;;8.13;;
71759;SDS011;59919;48.112;16.280;2023-01-28T08:51:28;10.30;;;7.30;;
71759;SDS011;59919;48.112;16.280;2023-01-28T08:54:02;12.57;;;7.97;;
71759;SDS011;59919;48.112;16.280;2023-01-28T08:56:37;11.90;;;7.75;;
71759;SDS011;59919;48.112;16.280;2023-01-28T08:59:08;9.80;;;7.15;;
71759;SDS011;59919;48.112;16.280;2023-01-28T09:01:40;12.68;;;7.47;;
71759;SDS011;59919;48.112;16.280;2023-01-28T09:04:11;10.65;;;7.00;;
71759;SDS011;59919;48.112;16.280;2023-01-28T09:06:42;9.93;;;7.05;;
71759;SDS011;59919;48.112;16.280;2023-01-28T09:09:16;12.55;;;7.82;;
71759;SDS011;59919;48.112;16.280;2023-01-28T09:11:47;11.18;;;7.50;;
71759;SDS011;59919;48.112;16.280;2023-01-28T09:14:20;11.75;;;7.07;;
71759;SDS011;59919;48.112;16.280;2023-01-28T09:16:54;12.88;;;7.47;;
71759;SDS011;59919;48.112;16.280;2023-01-28T09:19:25;11.45;;;7.22;;
71759;SDS011;59919;48.112;16.280;2023-01-28T09:21:59;11.55;;;7.53;;
71759;SDS011;59919;48.112;16.280;2023-01-28T09:24:30;12.93;;;7.35;;
71759;SDS011;59919;48.112;16.280;2023-01-28T09:27:03;11.95;;;7.20;;
71759;SDS011;59919;48.112;16.280;2023-01-28T09:29:34;9.63;;;6.60;;
71759;SDS011;59919;48.112;16.280;2023-01-28T09:32:09;10.98;;;7.38;;
71759;SDS011;59919;48.112;16.280;2023-01-28T09:34:41;11.82;;;7.78;;
71759;SDS011;59919;48.112;16.280;2023-01-28T09:37:15;10.05;;;7.10;;
71759;SDS011;59919;48.112;16.280;2023-01-28T09:39:47;10.45;;;7.07;;
71759;SDS011;59919;48.112;16.280;2023-01-28T09:42:26;9.70;;;6.30;;
71759;SDS011;59919;48.112;16.280;2023-01-28T09:48:12;10.38;;;6.95;;
71759;SDS011;59919;48.112;16.280;2023-01-28T09:50:49;10.57;;;6.68;;
71759;SDS011;59919;48.112;16.280;2023-01-28T09:53:46;10.18;;;7.00;;
71759;SDS011;59919;48.112;16.280;2023-01-28T09:56:24;9.60;;;6.78;;
71759;SDS011;59919;48.112;16.280;2023-01-28T09:59:05;9.93;;;6.88;;
71759;SDS011;59919;48.112;16.280;2023-01-28T10:04:47;11.40;;;7.22;;
71759;SDS011;59919;48.112;16.280;2023-01-28T10:10:09;10.32;;;7.05;;
71759;SDS011;59919;48.112;16.280;2023-01-28T10:13:32;10.80;;;6.82;;
71759;SDS011;59919;48.112;16.280;2023-01-28T10:16:05;10.50;;;6.65;;
71759;SDS011;59919;48.112;16.280;2023-01-28T10:18:49;10.02;;;6.60;;
71759;SDS011;59919;48.112;16.280;2023-01-28T10:21:26;8.90;;;6.35;;
71759;SDS011;59919;48.112;16.280;2023-01-28T10:27:11;9.80;;;6.68;;
71759;SDS011;59919;48.112;16.280;2023-01-28T10:29:47;9.30;;;6.55;;
71759;SDS011;59919;48.112;16.280;2023-01-28T10:34:59;8.52;;;6.32;;
71759;SDS011;59919;48.112;16.280;2023-01-28T10:37:34;10.13;;;6.43;;
71759;SDS011;59919;48.112;16.280;2023-01-28T10:40:11;8.57;;;6.43;;
71759;SDS011;59919;48.112;16.280;2023-01-28T10:42:46;9.98;;;6.32;;
71759;SDS011;59919;48.112;16.280;2023-01-28T10:45:20;9.35;;;6.85;;
71759;SDS011;59919;48.112;16.280;2023-01-28T10:47:55;10.05;;;6.78;;
71759;SDS011;59919;48.112;16.280;2023-01-28T10:50:37;10.68;;;6.35;;
71759;SDS011;59919;48.112;16.280;2023-01-28T10:56:27;9.80;;;6.40;;
71759;SDS011;59919;48.112;16.280;2023-01-28T10:59:05;8.93;;;6.25;;
71759;SDS011;59919;48.112;16.280;2023-01-28T11:01:52;11.65;;;7.07;;
71759;SDS011;59919;48.112;16.280;2023-01-28T11:04:31;9.05;;;6.22;;
71759;SDS011;59919;48.112;16.280;2023-01-28T11:07:05;10.00;;;6.27;;
71759;SDS011;59919;48.112;16.280;2023-01-28T11:09:49;8.60;;;6.43;;
71759;SDS011;59919;48.112;16.280;2023-01-28T11:17:34;9.82;;;6.70;;
71759;SDS011;59919;48.112;16.280;2023-01-28T11:20:11;9.00;;;6.22;;
71759;SDS011;59919;48.112;16.280;2023-01-28T11:22:50;9.65;;;6.20;;
71759;SDS011;59919;48.112;16.280;2023-01-28T11:28:07;9.80;;;6.60;;
71759;SDS011;59919;48.112;16.280;2023-01-28T11:30:49;9.55;;;6.10;;
71759;SDS011;59919;48.112;16.280;2023-01-28T11:33:46;10.45;;;6.72;;
71759;SDS011;59919;48.112;16.280;2023-01-28T11:36:31;7.47;;;5.38;;
71759;SDS011;59919;48.112;16.280;2023-01-28T11:39:20;8.45;;;5.85;;
71759;SDS011;59919;48.112;16.280;2023-01-28T11:42:17;8.50;;;5.90;;
71759;SDS011;59919;48.112;16.280;2023-01-28T11:44:50;9.65;;;5.90;;
71759;SDS011;59919;48.112;16.280;2023-01-28T11:47:33;9.80;;;6.63;;
71759;SDS011;59919;48.112;16.280;2023-01-28T11:53:18;8.73;;;6.07;;
71759;SDS011;59919;48.112;16.280;2023-01-28T12:08:08;9.55;;;6.07;;
71759;SDS011;59919;48.112;16.280;2023-01-28T12:10:26;9.25;;;6.22;;
71759;SDS011;59919;48.112;16.280;2023-01-28T12:20:59;8.55;;;5.82;;
71759;SDS011;59919;48.112;16.280;2023-01-28T12:29:55;7.32;;;5.15;;
71759;SDS011;59919;48.112;16.280;2023-01-28T12:32:44;8.63;;;5.68;;
71759;SDS011;59919;48.112;16.280;2023-01-28T12:38:53;9.20;;;5.82;;
71759;SDS011;59919;48.112;16.280;2023-01-28T12:42:03;8.80;;;6.15;;
71759;SDS011;59919;48.112;16.280;2023-01-28T12:44:39;9.35;;;6.50;;
71759;SDS011;59919;48.112;16.280;2023-01-28T12:47:25;10.30;;;5.70;;
71759;SDS011;59919;48.112;16.280;2023-01-28T12:50:12;8.43;;;5.85;;
71759;SDS011;59919;48.112;16.280;2023-01-28T12:52:57;9.02;;;6.30;;
71759;SDS011;59919;48.112;16.280;2023-01-28T12:58:06;8.57;;;6.07;;
71759;SDS011;59919;48.112;16.280;2023-01-28T13:00:49;8.43;;;5.97;;
71759;SDS011;59919;48.112;16.280;2023-01-28T13:06:00;8.50;;;5.15;;
71759;SDS011;59919;48.112;16.280;2023-01-28T13:08:35;7.40;;;4.93;;
71759;SDS011;59919;48.112;16.280;2023-01-28T13:11:09;7.88;;;4.85;;
71759;SDS011;59919;48.112;16.280;2023-01-28T13:13:45;7.97;;;5.65;;
71759;SDS011;59919;48.112;16.280;2023-01-28T13:16:17;8.80;;;5.85;;
71759;SDS011;59919;48.112;16.280;2023-01-28T13:18:49;9.77;;;5.70;;
71759;SDS011;59919;48.112;16.280;2023-01-28T13:31:54;8.77;;;5.40;;
71759;SDS011;59919;48.112;16.280;2023-01-28T13:34:29;7.35;;;5.03;;
71759;SDS011;59919;48.112;16.280;2023-01-28T13:40:33;9.10;;;6.07;;
71759;SDS011;59919;48.112;16.280;2023-01-28T13:42:59;8.55;;;5.40;;
71759;SDS011;59919;48.112;16.280;2023-01-28T13:45:31;9.23;;;6.63;;
71759;SDS011;59919;48.112;16.280;2023-01-28T13:50:56;8.93;;;6.15;;
71759;SDS011;59919;48.112;16.280;2023-01-28T13:53:36;8.00;;;5.53;;
71759;SDS011;59919;48.112;16.280;2023-01-28T13:56:18;9.43;;;5.27;;
71759;SDS011;59919;48.112;16.280;2023-01-28T13:58:56;9.77;;;5.63;;
71759;SDS011;59919;48.112;16.280;2023-01-28T14:19:14;8.07;;;5.35;;
71759;SDS011;59919;48.112;16.280;2023-01-28T14:21:49;8.18;;;5.88;;
71759;SDS011;59919;48.112;16.280;2023-01-28T14:24:20;11.40;;;5.97;;
71759;SDS011;59919;48.112;16.280;2023-01-28T14:26:54;11.65;;;6.18;;
71759;SDS011;59919;48.112;16.280;2023-01-28T14:30:17;9.90;;;6.18;;
71759;SDS011;59919;48.112;16.280;2023-01-28T14:32:42;9.82;;;5.97;;
71759;SDS011;59919;48.112;16.280;2023-01-28T14:35:32;8.88;;;5.95;;
71759;SDS011;59919;48.112;16.280;2023-01-28T14:38:07;8.93;;;6.18;;
71759;SDS011;59919;48.112;16.280;2023-01-28T14:40:45;10.27;;;6.57;;
71759;SDS011;59919;48.112;16.280;2023-01-28T14:43:21;10.27;;;6.63;;
71759;SDS011;59919;48.112;16.280;2023-01-28T15:00:32;8.18;;;5.68;;
71759;SDS011;59919;48.112;16.280;2023-01-28T15:03:07;10.82;;;6.53;;
71759;SDS011;59919;48.112;16.280;2023-01-28T15:05:46;8.88;;;6.10;;
71759;SDS011;59919;48.112;16.280;2023-01-28T15:08:22;7.50;;;5.57;;
71759;SDS011;59919;48.112;16.280;2023-01-28T15:10:56;9.45;;;5.60;;
71759;SDS011;59919;48.112;16.280;2023-01-28T15:13:31;9.95;;;6.60;;
71759;SDS011;59919;48.112;16.280;2023-01-28T15:16:05;9.32;;;6.40;;
71759;SDS011;59919;48.112;16.280;2023-01-28T15:18:41;9.15;;;6.13;;
71759;SDS011;59919;48.112;16.280;2023-01-28T15:21:19;9.10;;;6.15;;
71759;SDS011;59919;48.112;16.280;2023-01-28T15:23:52;9.98;;;6.35;;
71759;SDS011;59919;48.112;16.280;2023-01-28T15:26:32;9.70;;;6.22;;
71759;SDS011;59919;48.112;16.280;2023-01-28T15:29:04;9.18;;;6.03;;
71759;SDS011;59919;48.112;16.280;2023-01-28T15:31:38;11.75;;;6.45;;
71759;SDS011;59919;48.112;16.280;2023-01-28T15:34:18;9.65;;;6.30;;
71759;SDS011;59919;48.112;16.280;2023-01-28T15:36:50;8.43;;;5.87;;
71759;SDS011;59919;48.112;16.280;2023-01-28T15:39:22;11.25;;;6.40;;
71759;SDS011;59919;48.112;16.280;2023-01-28T15:41:58;9.63;;;6.07;;
71759;SDS011;59919;48.112;16.280;2023-01-28T15:44:46;9.88;;;6.57;;
71759;SDS011;59919;48.112;16.280;2023-01-28T15:47:25;9.55;;;6.15;;
71759;SDS011;59919;48.112;16.280;2023-01-28T15:50:03;8.57;;;5.90;;
71759;SDS011;59919;48.112;16.280;2023-01-28T15:52:41;10.13;;;6.18;;
71759;SDS011;59919;48.112;16.280;2023-01-28T16:01:07;9.50;;;6.07;;
71759;SDS011;59919;48.112;16.280;2023-01-28T16:03:45;9.20;;;6.03;;
71759;SDS011;59919;48.112;16.280;2023-01-28T16:06:32;10.13;;;6.30;;
71759;SDS011;59919;48.112;16.280;2023-01-28T16:09:41;10.77;;;6.18;;
71759;SDS011;59919;48.112;16.280;2023-01-28T16:12:06;9.50;;;6.22;;
71759;SDS011;59919;48.112;16.280;2023-01-28T16:17:15;10.27;;;6.95;;
71759;SDS011;59919;48.112;16.280;2023-01-28T16:20:20;9.93;;;6.53;;
71759;SDS011;59919;48.112;16.280;2023-01-28T16:23:01;9.88;;;6.68;;
71759;SDS011;59919;48.112;16.280;2023-01-28T16:25:34;9.65;;;6.70;;
71759;SDS011;59919;48.112;16.280;2023-01-28T16:28:20;9.65;;;6.60;;
71759;SDS011;59919;48.112;16.280;2023-01-28T16:30:51;9.02;;;6.25;;
71759;SDS011;59919;48.112;16.280;2023-01-28T16:33:22;10.15;;;6.50;;
71759;SDS011;59919;48.112;16.280;2023-01-28T16:35:54;10.85;;;7.03;;
71759;SDS011;59919;48.112;16.280;2023-01-28T16:38:25;10.70;;;6.75;;
71759;SDS011;59919;48.112;16.280;2023-01-28T16:40:56;10.30;;;6.10;;
71759;SDS011;59919;48.112;16.280;2023-01-28T16:43:28;10.55;;;6.30;;
71759;SDS011;59919;48.112;16.280;2023-01-28T16:45:59;10.18;;;6.90;;
71759;SDS011;59919;48.112;16.280;2023-01-28T16:48:33;9.40;;;6.18;;
71759;SDS011;59919;48.112;16.280;2023-01-28T16:51:09;8.38;;;6.07;;
71759;SDS011;59919;48.112;16.280;2023-01-28T16:53:48;9.77;;;6.65;;
71759;SDS011;59919;48.112;16.280;2023-01-28T16:56:20;9.75;;;6.75;;
71759;SDS011;59919;48.112;16.280;2023-01-28T16:58:54;10.13;;;6.45;;
71759;SDS011;59919;48.112;16.280;2023-01-28T17:01:26;8.63;;;6.13;;
71759;SDS011;59919;48.112;16.280;2023-01-28T17:03:57;8.50;;;6.07;;
71759;SDS011;59919;48.112;16.280;2023-01-28T17:06:28;8.20;;;6.13;;
71759;SDS011;59919;48.112;16.280;2023-01-28T17:09:01;8.88;;;6.30;;
71759;SDS011;59919;48.112;16.280;2023-01-28T17:11:34;7.72;;;5.65;;
71759;SDS011;59919;48.112;16.280;2023-01-28T17:14:05;8.82;;;6.35;;
71759;SDS011;59919;48.112;16.280;2023-01-28T17:16:36;9.10;;;6.28;;
71759;SDS011;59919;48.112;16.280;2023-01-28T17:19:10;8.77;;;5.88;;
71759;SDS011;59919;48.112;16.280;2023-01-28T17:21:41;8.93;;;6.07;;
71759;SDS011;59919;48.112;16.280;2023-01-28T17:24:15;7.85;;;5.75;;
71759;SDS011;59919;48.112;16.280;2023-01-28T17:26:46;8.57;;;5.72;;
71759;SDS011;59919;48.112;16.280;2023-01-28T17:29:20;8.65;;;5.95;;
71759;SDS011;59919;48.112;16.280;2023-01-28T17:31:51;8.68;;;5.10;;
71759;SDS011;59919;48.112;16.280;2023-01-28T17:34:22;8.30;;;6.22;;
71759;SDS011;59919;48.112;16.280;2023-01-28T17:36:53;8.40;;;5.90;;
71759;SDS011;59919;48.112;16.280;2023-01-28T17:39:24;8.57;;;5.80;;
71759;SDS011;59919;48.112;16.280;2023-01-28T17:41:55;8.43;;;5.63;;
71759;SDS011;59919;48.112;16.280;2023-01-28T17:44:26;7.95;;;5.50;;
71759;SDS011;59919;48.112;16.280;2023-01-28T17:46:57;7.65;;;5.57;;
71759;SDS011;59919;48.112;16.280;2023-01-28T17:49:28;8.38;;;5.55;;
71759;SDS011;59919;48.112;16.280;2023-01-28T17:52:00;8.57;;;5.63;;